Danny G — WDD3436 — position and weather

sailwx.info

Track history (hours):
 
Tides and Currents Weather Stations Pressure Air Temp Water Temp Dewpoint Dewpoint Depression Visibility Wind Speed Wind Dir Waves Ship Positions

Danny G

Owner: PACIFIC TUGBOAT SERVICE, INC, LONG BEACH, CA. More information available from US FCC via Universal Licensing System and Coast Guard Vessel Documentation Center.

Last reported at 2018-May-29 19:02 UTC. Time now 2018-Jun-23 19:16 UTC.
Position N 38°03' W 122°12'.
Warning: this ship's position is 25 days out of date.

Length 14 m.

Type: Passenger vessel. MMSI: 367131320.

Date/timePositionNaut miles runAvg speedWind from/ knotsBaromVisibWave heightAir tempDewpointWater temp
2018-May-29 19:02N 38°03' W 122°12'120.1
2018-May-29 18:59N 38°04' W 122°13'1219.3
2018-May-29 18:23N 37°57' W 122°26'411.7
2018-May-29 18:00N 37°54' W 122°22'0 0.0
2018-May-29 17:30N 37°54' W 122°22'3 7.0
2018-May-29 17:00N 37°51' W 122°23'  
2018-May-25 19:53N 37°49' W 122°19'513.4
2018-May-25 19:30N 37°49' W 122°25'1 1.9
2018-May-25 19:00N 37°48' W 122°26'612.0
2018-May-25 18:30N 37°49' W 122°19'0 0.6
2018-May-25 18:00N 37°49' W 122°18'3 6.2
2018-May-25 17:30N 37°48' W 122°22'0 0.0
2018-May-24 20:18N 37°48' W 122°22'3 8.8
2018-May-24 20:00N 37°49' W 122°19'0 0.4
2018-May-24 19:30N 37°49' W 122°19'3 5.6
2018-May-24 19:00N 37°48' W 122°22'611.9
2018-May-24 18:30N 37°54' W 122°23'1 1.1
2018-May-24 17:41N 37°54' W 122°22'1 7.9
2018-May-24 17:30N 37°53' W 122°24'510.5
2018-May-24 17:00N 37°48' W 122°22'3 6.1
2018-May-24 16:30N 37°49' W 122°19'3 0.9
2018-May-24 13:13N 37°48' W 122°22'3 0.2
2018-May-23 22:52N 37°49' W 122°18'3 8.8
2018-May-23 22:30N 37°48' W 122°22'0 0.1
2018-May-23 22:00N 37°48' W 122°22'0 0.0
2018-May-23 21:30N 37°48' W 122°22'0 0.0
2018-May-23 21:00N 37°48' W 122°22'2 4.8
2018-May-23 20:30N 37°49' W 122°19'1 1.4
2018-May-23 20:00N 37°49' W 122°18'0 0.0
2018-May-23 19:30N 37°49' W 122°18'3 6.1
2018-May-23 19:00N 37°48' W 122°22'2 4.4
2018-May-23 18:30N 37°50' W 122°23'4 2.8
2018-May-23 17:03N 37°54' W 122°22'0 6.9
2018-May-23 17:00N 37°54' W 122°22'611.8
2018-May-23 16:30N 37°48' W 122°22'2 3.4
2018-May-23 16:00N 37°49' W 122°20'1 0.2
2018-May-23 13:07N 37°49' W 122°19'214.0
2018-May-23 13:00N 37°48' W 122°21'2 4.9
2018-May-23 12:30N 37°49' W 122°18'3 0.2
2018-May-22 16:00N 37°48' W 122°22'2 4.5
2018-May-22 15:30N 37°49' W 122°19'2 0.9
2018-May-22 13:07N 37°48' W 122°22'0 0.1
2018-May-22 13:00N 37°48' W 122°22'0 0.0
2018-May-21 18:35N 37°48' W 122°22'0 0.6
2018-May-21 18:30N 37°48' W 122°22'5 9.3
2018-May-21 18:00N 37°53' W 122°24'2 4.0
2018-May-21 17:31N 37°54' W 122°22'3 5.4
2018-May-21 17:00N 37°52' W 122°24'  
Track history (hours):
 
Tides and Currents Weather Stations Pressure Air Temp Water Temp Dewpoint Dewpoint Depression Visibility Wind Speed Wind Dir Waves Ship Positions

Danny G

Owner: PACIFIC TUGBOAT SERVICE, INC, LONG BEACH, CA. More information available from US FCC via Universal Licensing System and Coast Guard Vessel Documentation Center.

Last reported at 2018-May-29 19:02 UTC. Time now 2018-Jun-23 19:16 UTC.
Position N 38°03' W 122°12'.
Warning: this ship's position is 25 days out of date.

Length 14 m.

Type: Passenger vessel. MMSI: 367131320.

Date/timePositionNaut miles runAvg speedWind from/ knotsBaromVisibWave heightAir tempDewpointWater temp
2018-May-29 19:02N 38°03' W 122°12'120.1
2018-May-29 18:59N 38°04' W 122°13'1219.3
2018-May-29 18:23N 37°57' W 122°26'411.7
2018-May-29 18:00N 37°54' W 122°22'0 0.0
2018-May-29 17:30N 37°54' W 122°22'3 7.0
2018-May-29 17:00N 37°51' W 122°23'  
2018-May-25 19:53N 37°49' W 122°19'513.4
2018-May-25 19:30N 37°49' W 122°25'1 1.9
2018-May-25 19:00N 37°48' W 122°26'612.0
2018-May-25 18:30N 37°49' W 122°19'0 0.6
2018-May-25 18:00N 37°49' W 122°18'3 6.2
2018-May-25 17:30N 37°48' W 122°22'0 0.0
2018-May-24 20:18N 37°48' W 122°22'3 8.8
2018-May-24 20:00N 37°49' W 122°19'0 0.4
2018-May-24 19:30N 37°49' W 122°19'3 5.6
2018-May-24 19:00N 37°48' W 122°22'611.9
2018-May-24 18:30N 37°54' W 122°23'1 1.1
2018-May-24 17:41N 37°54' W 122°22'1 7.9
2018-May-24 17:30N 37°53' W 122°24'510.5
2018-May-24 17:00N 37°48' W 122°22'3 6.1
2018-May-24 16:30N 37°49' W 122°19'3 0.9
2018-May-24 13:13N 37°48' W 122°22'3 0.2
2018-May-23 22:52N 37°49' W 122°18'3 8.8
2018-May-23 22:30N 37°48' W 122°22'0 0.1
2018-May-23 22:00N 37°48' W 122°22'0 0.0
2018-May-23 21:30N 37°48' W 122°22'0 0.0
2018-May-23 21:00N 37°48' W 122°22'2 4.8
2018-May-23 20:30N 37°49' W 122°19'1 1.4
2018-May-23 20:00N 37°49' W 122°18'0 0.0
2018-May-23 19:30N 37°49' W 122°18'3 6.1
2018-May-23 19:00N 37°48' W 122°22'2 4.4
2018-May-23 18:30N 37°50' W 122°23'4 2.8
2018-May-23 17:03N 37°54' W 122°22'0 6.9
2018-May-23 17:00N 37°54' W 122°22'611.8
2018-May-23 16:30N 37°48' W 122°22'2 3.4
2018-May-23 16:00N 37°49' W 122°20'1 0.2
2018-May-23 13:07N 37°49' W 122°19'214.0
2018-May-23 13:00N 37°48' W 122°21'2 4.9
2018-May-23 12:30N 37°49' W 122°18'3 0.2
2018-May-22 16:00N 37°48' W 122°22'2 4.5
2018-May-22 15:30N 37°49' W 122°19'2 0.9
2018-May-22 13:07N 37°48' W 122°22'0 0.1
2018-May-22 13:00N 37°48' W 122°22'0 0.0
2018-May-21 18:35N 37°48' W 122°22'0 0.6
2018-May-21 18:30N 37°48' W 122°22'5 9.3
2018-May-21 18:00N 37°53' W 122°24'2 4.0
2018-May-21 17:31N 37°54' W 122°22'3 5.4
2018-May-21 17:00N 37°52' W 122°24'  

Dump ship's entire track history